sensor_id;sensor_type;location;lat;lon;timestamp;pressure;altitude;pressure_sealevel;temperature;humidity
19748;BME280;10032;51.386;12.516;2023-02-14T00:02:05;102329.22;;;6.18;100.00
19748;BME280;10032;51.386;12.516;2023-02-14T00:04:31;102324.84;;;6.17;100.00
19748;BME280;10032;51.386;12.516;2023-02-14T00:06:56;102325.72;;;6.18;100.00
19748;BME280;10032;51.386;12.516;2023-02-14T00:09:22;102324.84;;;6.17;100.00
19748;BME280;10032;51.386;12.516;2023-02-14T00:11:47;102323.84;;;6.18;100.00
19748;BME280;10032;51.386;12.516;2023-02-14T00:14:14;102322.00;;;6.19;100.00
19748;BME280;10032;51.386;12.516;2023-02-14T00:16:58;102325.19;;;6.22;100.00
19748;BME280;10032;51.386;12.516;2023-02-14T00:19:23;102314.44;;;6.22;100.00
19748;BME280;10032;51.386;12.516;2023-02-14T00:21:49;102318.47;;;6.26;100.00
19748;BME280;10032;51.386;12.516;2023-02-14T00:24:25;102312.09;;;6.27;100.00
19748;BME280;10032;51.386;12.516;2023-02-14T00:26:50;102313.09;;;6.26;100.00
19748;BME280;10032;51.386;12.516;2023-02-14T00:29:21;102305.34;;;6.23;100.00
19748;BME280;10032;51.386;12.516;2023-02-14T00:31:47;102308.88;;;6.24;100.00
19748;BME280;10032;51.386;12.516;2023-02-14T00:34:14;102303.66;;;6.22;100.00
19748;BME280;10032;51.386;12.516;2023-02-14T00:36:40;102293.56;;;6.24;100.00
19748;BME280;10032;51.386;12.516;2023-02-14T00:39:08;102301.31;;;6.27;100.00
19748;BME280;10032;51.386;12.516;2023-02-14T00:41:34;102298.63;;;6.27;100.00
19748;BME280;10032;51.386;12.516;2023-02-14T00:44:00;102302.31;;;6.26;100.00
19748;BME280;10032;51.386;12.516;2023-02-14T00:46:26;102304.81;;;6.28;100.00
19748;BME280;10032;51.386;12.516;2023-02-14T00:48:52;102304.34;;;6.32;100.00
19748;BME280;10032;51.386;12.516;2023-02-14T00:51:19;102303.31;;;6.33;100.00
19748;BME280;10032;51.386;12.516;2023-02-14T00:53:46;102301.50;;;6.34;100.00
19748;BME280;10032;51.386;12.516;2023-02-14T00:56:12;102300.63;;;6.33;100.00
19748;BME280;10032;51.386;12.516;2023-02-14T00:58:38;102303.31;;;6.33;100.00
19748;BME280;10032;51.386;12.516;2023-02-14T01:01:04;102305.69;;;6.36;100.00
19748;BME280;10032;51.386;12.516;2023-02-14T01:03:29;102304.69;;;6.37;100.00
19748;BME280;10032;51.386;12.516;2023-02-14T01:05:54;102306.88;;;6.34;100.00
19748;BME280;10032;51.386;12.516;2023-02-14T01:08:20;102305.69;;;6.36;100.00
19748;BME280;10032;51.386;12.516;2023-02-14T01:10:46;102307.38;;;6.37;100.00
19748;BME280;10032;51.386;12.516;2023-02-14T01:13:12;102298.44;;;6.37;100.00
19748;BME280;10032;51.386;12.516;2023-02-14T01:15:42;102302.47;;;6.33;100.00
19748;BME280;10032;51.386;12.516;2023-02-14T01:18:08;102294.41;;;6.33;100.00
19748;BME280;10032;51.386;12.516;2023-02-14T01:20:34;102290.88;;;6.32;100.00
19748;BME280;10032;51.386;12.516;2023-02-14T01:22:59;102293.06;;;6.29;100.00
19748;BME280;10032;51.386;12.516;2023-02-14T01:25:25;102293.25;;;6.27;100.00
19748;BME280;10032;51.386;12.516;2023-02-14T01:27:50;102294.75;;;6.30;100.00
19748;BME280;10032;51.386;12.516;2023-02-14T01:30:16;102290.19;;;6.30;100.00
19748;BME280;10032;51.386;12.516;2023-02-14T01:32:42;102283.13;;;6.29;100.00
19748;BME280;10032;51.386;12.516;2023-02-14T01:35:07;102281.94;;;6.32;100.00
19748;BME280;10032;51.386;12.516;2023-02-14T01:37:33;102282.81;;;6.32;100.00
19748;BME280;10032;51.386;12.516;2023-02-14T01:39:59;102279.09;;;6.33;100.00
19748;BME280;10032;51.386;12.516;2023-02-14T01:42:26;102281.47;;;6.36;100.00
19748;BME280;10032;51.386;12.516;2023-02-14T01:45:04;102283.31;;;6.36;100.00
19748;BME280;10032;51.386;12.516;2023-02-14T01:47:33;102275.06;;;6.37;100.00
19748;BME280;10032;51.386;12.516;2023-02-14T01:50:09;102265.31;;;6.36;100.00
19748;BME280;10032;51.386;12.516;2023-02-14T01:52:44;102275.75;;;6.31;100.00
19748;BME280;10032;51.386;12.516;2023-02-14T01:55:14;102279.78;;;6.27;100.00
19748;BME280;10032;51.386;12.516;2023-02-14T02:00:32;102280.28;;;6.31;100.00
19748;BME280;10032;51.386;12.516;2023-02-14T02:03:18;102282.97;;;6.31;100.00
19748;BME280;10032;51.386;12.516;2023-02-14T02:05:47;102270.38;;;6.31;100.00
19748;BME280;10032;51.386;12.516;2023-02-14T02:08:14;102271.53;;;6.37;100.00
19748;BME280;10032;51.386;12.516;2023-02-14T02:10:40;102267.31;;;6.42;100.00
19748;BME280;10032;51.386;12.516;2023-02-14T02:13:07;102271.34;;;6.38;100.00
19748;BME280;10032;51.386;12.516;2023-02-14T02:15:41;102269.69;;;6.37;100.00
19748;BME280;10032;51.386;12.516;2023-02-14T02:21:28;102258.06;;;6.37;100.00
19748;BME280;10032;51.386;12.516;2023-02-14T02:35:22;102266.97;;;6.29;100.00
19748;BME280;10032;51.386;12.516;2023-02-14T02:48:53;102249.81;;;6.30;100.00
19748;BME280;10032;51.386;12.516;2023-02-14T02:51:43;102244.63;;;6.29;100.00
19748;BME280;10032;51.386;12.516;2023-02-14T02:54:41;102251.19;;;6.26;100.00
19748;BME280;10032;51.386;12.516;2023-02-14T02:57:17;102241.09;;;6.28;100.00
19748;BME280;10032;51.386;12.516;2023-02-14T02:59:46;102245.13;;;6.32;100.00
19748;BME280;10032;51.386;12.516;2023-02-14T03:02:24;102243.94;;;6.27;100.00
19748;BME280;10032;51.386;12.516;2023-02-14T03:04:55;102235.88;;;6.27;100.00
19748;BME280;10032;51.386;12.516;2023-02-14T03:07:37;102244.44;;;6.30;100.00
19748;BME280;10032;51.386;12.516;2023-02-14T03:10:06;102242.09;;;6.27;100.00
19748;BME280;10032;51.386;12.516;2023-02-14T03:15:32;102241.94;;;6.29;100.00
19748;BME280;10032;51.386;12.516;2023-02-14T03:18:07;102249.31;;;6.27;100.00
19748;BME280;10032;51.386;12.516;2023-02-14T03:21:09;102245.81;;;6.26;100.00
19748;BME280;10032;51.386;12.516;2023-02-14T03:26:34;102252.00;;;6.27;100.00
19748;BME280;10032;51.386;12.516;2023-02-14T03:31:51;102247.81;;;6.24;100.00
19748;BME280;10032;51.386;12.516;2023-02-14T03:37:46;102252.88;;;6.27;100.00
19748;BME280;10032;51.386;12.516;2023-02-14T03:40:32;102252.72;;;6.29;100.00
19748;BME280;10032;51.386;12.516;2023-02-14T03:43:15;102256.38;;;6.28;100.00
19748;BME280;10032;51.386;12.516;2023-02-14T03:45:47;102262.44;;;6.30;100.00
19748;BME280;10032;51.386;12.516;2023-02-14T03:48:18;102260.41;;;6.32;100.00
19748;BME280;10032;51.386;12.516;2023-02-14T03:50:47;102257.56;;;6.33;100.00
19748;BME280;10032;51.386;12.516;2023-02-14T03:53:17;102256.72;;;6.33;100.00
19748;BME280;10032;51.386;12.516;2023-02-14T03:56:12;102258.41;;;6.34;100.00
19748;BME280;10032;51.386;12.516;2023-02-14T03:58:41;102252.19;;;6.33;100.00
19748;BME280;10032;51.386;12.516;2023-02-14T04:01:35;102254.88;;;6.33;100.00
19748;BME280;10032;51.386;12.516;2023-02-14T04:04:00;102253.38;;;6.31;100.00
19748;BME280;10032;51.386;12.516;2023-02-14T04:06:28;102248.84;;;6.31;100.00
19748;BME280;10032;51.386;12.516;2023-02-14T04:08:53;102250.19;;;6.27;100.00
19748;BME280;10032;51.386;12.516;2023-02-14T04:11:19;102251.19;;;6.26;100.00
19748;BME280;10032;51.386;12.516;2023-02-14T04:13:45;102254.53;;;6.28;100.00
19748;BME280;10032;51.386;12.516;2023-02-14T04:16:10;102252.50;;;6.30;100.00
19748;BME280;10032;51.386;12.516;2023-02-14T04:18:35;102248.84;;;6.31;100.00
19748;BME280;10032;51.386;12.516;2023-02-14T04:21:19;102247.97;;;6.31;100.00
19748;BME280;10032;51.386;12.516;2023-02-14T04:23:44;102242.75;;;6.29;100.00
19748;BME280;10032;51.386;12.516;2023-02-14T04:26:10;102249.81;;;6.30;100.00
19748;BME280;10032;51.386;12.516;2023-02-14T04:28:35;102239.41;;;6.27;100.00
19748;BME280;10032;51.386;12.516;2023-02-14T04:31:03;102235.53;;;6.30;100.00
19748;BME280;10032;51.386;12.516;2023-02-14T04:33:29;102233.00;;;6.28;100.00
19748;BME280;10032;51.386;12.516;2023-02-14T04:35:54;102225.78;;;6.29;100.00
19748;BME280;10032;51.386;12.516;2023-02-14T04:38:20;102219.56;;;6.28;100.00
19748;BME280;10032;51.386;12.516;2023-02-14T04:40:48;102221.41;;;6.28;100.00
19748;BME280;10032;51.386;12.516;2023-02-14T04:43:14;102223.91;;;6.29;100.00
19748;BME280;10032;51.386;12.516;2023-02-14T04:45:39;102222.25;;;6.28;100.00
19748;BME280;10032;51.386;12.516;2023-02-14T04:48:05;102218.91;;;6.26;100.00
19748;BME280;10032;51.386;12.516;2023-02-14T04:50:30;102224.97;;;6.20;100.00
19748;BME280;10032;51.386;12.516;2023-02-14T04:52:55;102225.47;;;6.24;100.00
19748;BME280;10032;51.386;12.516;2023-02-14T04:55:21;102222.94;;;6.22;100.00
19748;BME280;10032;51.386;12.516;2023-02-14T04:57:46;102213.84;;;6.23;100.00
19748;BME280;10032;51.386;12.516;2023-02-14T05:00:12;102219.91;;;6.25;100.00
19748;BME280;10032;51.386;12.516;2023-02-14T05:02:38;102221.75;;;6.25;100.00
19748;BME280;10032;51.386;12.516;2023-02-14T05:05:03;102224.59;;;6.23;100.00
19748;BME280;10032;51.386;12.516;2023-02-14T05:07:29;102226.28;;;6.24;100.00
19748;BME280;10032;51.386;12.516;2023-02-14T05:09:54;102229.50;;;6.20;100.00
19748;BME280;10032;51.386;12.516;2023-02-14T05:12:19;102216.22;;;6.18;100.00
19748;BME280;10032;51.386;12.516;2023-02-14T05:14:45;102210.81;;;6.18;100.00
19748;BME280;10032;51.386;12.516;2023-02-14T05:17:11;102209.16;;;6.17;100.00
19748;BME280;10032;51.386;12.516;2023-02-14T05:19:36;102208.13;;;6.18;100.00
19748;BME280;10032;51.386;12.516;2023-02-14T05:22:02;102205.44;;;6.18;100.00
19748;BME280;10032;51.386;12.516;2023-02-14T05:24:28;102206.28;;;6.19;100.00
19748;BME280;10032;51.386;12.516;2023-02-14T05:26:53;102210.00;;;6.18;100.00
19748;BME280;10032;51.386;12.516;2023-02-14T05:29:18;102210.00;;;6.18;100.00
19748;BME280;10032;51.386;12.516;2023-02-14T05:31:44;102209.81;;;6.19;100.00
19748;BME280;10032;51.386;12.516;2023-02-14T05:34:10;102214.84;;;6.14;100.00
19748;BME280;10032;51.386;12.516;2023-02-14T05:36:35;102208.13;;;6.18;100.00
19748;BME280;10032;51.386;12.516;2023-02-14T05:39:01;102199.25;;;6.18;100.00
19748;BME280;10032;51.386;12.516;2023-02-14T05:41:27;102207.63;;;6.15;100.00
19748;BME280;10032;51.386;12.516;2023-02-14T05:43:52;102197.88;;;6.14;100.00
19748;BME280;10032;51.386;12.516;2023-02-14T05:46:17;102197.19;;;6.12;100.00
19748;BME280;10032;51.386;12.516;2023-02-14T05:48:43;102211.00;;;6.09;100.00
19748;BME280;10032;51.386;12.516;2023-02-14T05:51:10;102211.84;;;6.09;100.00
19748;BME280;10032;51.386;12.516;2023-02-14T05:53:36;102207.31;;;6.10;100.00
19748;BME280;10032;51.386;12.516;2023-02-14T05:56:02;102206.44;;;6.09;100.00
19748;BME280;10032;51.386;12.516;2023-02-14T05:58:28;102213.88;;;6.07;100.00
19748;BME280;10032;51.386;12.516;2023-02-14T06:00:55;102200.44;;;5.99;100.00
19748;BME280;10032;51.386;12.516;2023-02-14T06:03:21;102205.81;;;5.99;100.00
19748;BME280;10032;51.386;12.516;2023-02-14T06:05:46;102204.97;;;5.99;100.00
19748;BME280;10032;51.386;12.516;2023-02-14T06:08:12;102208.50;;;5.99;100.00
19748;BME280;10032;51.386;12.516;2023-02-14T06:10:37;102211.69;;;5.95;100.00
19748;BME280;10032;51.386;12.516;2023-02-14T06:13:02;102211.19;;;5.91;100.00
19748;BME280;10032;51.386;12.516;2023-02-14T06:15:36;102213.22;;;5.89;100.00
19748;BME280;10032;51.386;12.516;2023-02-14T06:18:02;102207.16;;;5.87;100.00
19748;BME280;10032;51.386;12.516;2023-02-14T06:20:27;102215.22;;;5.87;100.00
19748;BME280;10032;51.386;12.516;2023-02-14T06:22:53;102217.09;;;5.87;100.00
19748;BME280;10032;51.386;12.516;2023-02-14T06:25:20;102222.47;;;5.87;100.00
19748;BME280;10032;51.386;12.516;2023-02-14T06:27:45;102212.38;;;5.81;100.00
19748;BME280;10032;51.386;12.516;2023-02-14T06:30:12;102217.19;;;5.77;100.00
19748;BME280;10032;51.386;12.516;2023-02-14T06:32:38;102209.31;;;5.76;100.00
19748;BME280;10032;51.386;12.516;2023-02-14T06:35:05;102217.72;;;5.73;100.00
19748;BME280;10032;51.386;12.516;2023-02-14T06:37:30;102215.03;;;5.73;100.00
19748;BME280;10032;51.386;12.516;2023-02-14T06:39:56;102214.88;;;5.74;100.00
19748;BME280;10032;51.386;12.516;2023-02-14T06:42:21;102212.19;;;5.74;100.00
19748;BME280;10032;51.386;12.516;2023-02-14T06:44:47;102217.56;;;5.74;100.00
19748;BME280;10032;51.386;12.516;2023-02-14T06:47:12;102210.16;;;5.76;100.00
19748;BME280;10032;51.386;12.516;2023-02-14T06:49:38;102217.56;;;5.74;100.00
19748;BME280;10032;51.386;12.516;2023-02-14T06:52:04;102215.88;;;5.73;100.00
19748;BME280;10032;51.386;12.516;2023-02-14T06:54:30;102218.72;;;5.72;100.00
19748;BME280;10032;51.386;12.516;2023-02-14T06:56:55;102219.22;;;5.75;100.00
19748;BME280;10032;51.386;12.516;2023-02-14T06:59:21;102213.84;;;5.75;100.00
19748;BME280;10032;51.386;12.516;2023-02-14T07:01:46;102210.16;;;5.76;100.00
19748;BME280;10032;51.386;12.516;2023-02-14T07:04:12;102209.81;;;5.79;100.00
19748;BME280;10032;51.386;12.516;2023-02-14T07:06:37;102206.16;;;5.80;100.00
19748;BME280;10032;51.386;12.516;2023-02-14T07:09:04;102202.94;;;5.77;100.00
19748;BME280;10032;51.386;12.516;2023-02-14T07:11:29;102206.28;;;5.79;100.00
19748;BME280;10032;51.386;12.516;2023-02-14T07:13:55;102214.88;;;5.82;100.00
19748;BME280;10032;51.386;12.516;2023-02-14T07:16:20;102214.88;;;5.82;100.00
19748;BME280;10032;51.386;12.516;2023-02-14T07:18:46;102215.56;;;5.84;100.00
19748;BME280;10032;51.386;12.516;2023-02-14T07:21:11;102208.50;;;5.83;100.00
19748;BME280;10032;51.386;12.516;2023-02-14T07:23:37;102209.19;;;5.85;100.00
19748;BME280;10032;51.386;12.516;2023-02-14T07:26:02;102208.66;;;5.90;100.00
19748;BME280;10032;51.386;12.516;2023-02-14T07:28:28;102216.25;;;5.94;100.00
19748;BME280;10032;51.386;12.516;2023-02-14T07:30:58;102211.84;;;5.93;100.00
19748;BME280;10032;51.386;12.516;2023-02-14T07:33:23;102211.53;;;5.96;100.00
19748;BME280;10032;51.386;12.516;2023-02-14T07:35:49;102208.00;;;6.04;100.00
19748;BME280;10032;51.386;12.516;2023-02-14T07:38:14;102208.97;;;6.11;100.00
19748;BME280;10032;51.386;12.516;2023-02-14T07:40:40;102211.19;;;6.15;100.00
19748;BME280;10032;51.386;12.516;2023-02-14T07:43:05;102202.94;;;6.09;100.00
19748;BME280;10032;51.386;12.516;2023-02-14T07:45:32;102205.47;;;6.10;100.00
19748;BME280;10032;51.386;12.516;2023-02-14T07:47:57;102194.69;;;6.18;100.00
19748;BME280;10032;51.386;12.516;2023-02-14T07:50:26;102193.34;;;6.22;100.00
19748;BME280;10032;51.386;12.516;2023-02-14T07:52:53;102197.38;;;6.26;100.00
19748;BME280;10032;51.386;12.516;2023-02-14T07:55:19;102190.44;;;6.32;100.00
19748;BME280;10032;51.386;12.516;2023-02-14T07:57:46;102191.63;;;6.37;100.00
19748;BME280;10032;51.386;12.516;2023-02-14T08:00:12;102186.56;;;6.42;100.00
19748;BME280;10032;51.386;12.516;2023-02-14T08:02:39;102192.97;;;6.41;100.00
19748;BME280;10032;51.386;12.516;2023-02-14T08:05:04;102192.63;;;6.36;100.00
19748;BME280;10032;51.386;12.516;2023-02-14T08:07:30;102188.56;;;6.40;100.00
19748;BME280;10032;51.386;12.516;2023-02-14T08:09:55;102187.22;;;6.44;100.00
19748;BME280;10032;51.386;12.516;2023-02-14T08:12:21;102201.16;;;6.48;100.00
19748;BME280;10032;51.386;12.516;2023-02-14T08:15:05;102199.66;;;6.53;100.00
19748;BME280;10032;51.386;12.516;2023-02-14T08:17:49;102199.81;;;6.52;100.00
19748;BME280;10032;51.386;12.516;2023-02-14T08:20:14;102202.66;;;6.58;100.00
19748;BME280;10032;51.386;12.516;2023-02-14T08:22:40;102199.59;;;6.61;100.00
19748;BME280;10032;51.386;12.516;2023-02-14T08:25:05;102202.63;;;6.66;100.00
19748;BME280;10032;51.386;12.516;2023-02-14T08:27:31;102207.66;;;6.69;100.00
19748;BME280;10032;51.386;12.516;2023-02-14T08:29:56;102201.25;;;6.70;100.00
19748;BME280;10032;51.386;12.516;2023-02-14T08:32:21;102196.19;;;6.75;100.00
19748;BME280;10032;51.386;12.516;2023-02-14T08:34:47;102204.44;;;6.82;100.00
19748;BME280;10032;51.386;12.516;2023-02-14T08:37:12;102199.53;;;6.85;100.00
19748;BME280;10032;51.386;12.516;2023-02-14T08:39:38;102194.78;;;6.87;100.00
19748;BME280;10032;51.386;12.516;2023-02-14T08:42:04;102197.63;;;6.94;100.00
19748;BME280;10032;51.386;12.516;2023-02-14T08:44:30;102194.41;;;6.98;100.00
19748;BME280;10032;51.386;12.516;2023-02-14T08:46:55;102196.22;;;7.06;100.00
19748;BME280;10032;51.386;12.516;2023-02-14T08:49:21;102194.69;;;7.11;100.00
19748;BME280;10032;51.386;12.516;2023-02-14T08:51:46;102192.94;;;7.18;100.00
19748;BME280;10032;51.386;12.516;2023-02-14T08:54:12;102195.47;;;7.20;100.00
19748;BME280;10032;51.386;12.516;2023-02-14T08:56:37;102195.78;;;7.25;100.00
19748;BME280;10032;51.386;12.516;2023-02-14T08:59:03;102201.78;;;7.35;100.00
19748;BME280;10032;51.386;12.516;2023-02-14T09:01:28;102198.53;;;7.39;100.00
19748;BME280;10032;51.386;12.516;2023-02-14T09:03:54;102194.00;;;7.40;100.00
19748;BME280;10032;51.386;12.516;2023-02-14T09:06:19;102191.47;;;7.38;100.00
19748;BME280;10032;51.386;12.516;2023-02-14T09:08:45;102197.59;;;7.32;100.00
19748;BME280;10032;51.386;12.516;2023-02-14T09:11:16;102193.16;;;7.39;100.00
19748;BME280;10032;51.386;12.516;2023-02-14T09:13:43;102195.44;;;7.50;100.00
19748;BME280;10032;51.386;12.516;2023-02-14T09:16:11;102201.66;;;7.51;100.00
19748;BME280;10032;51.386;12.516;2023-02-14T09:18:37;102193.19;;;7.54;100.00
19748;BME280;10032;51.386;12.516;2023-02-14T09:21:08;102197.22;;;7.58;100.00
19748;BME280;10032;51.386;12.516;2023-02-14T09:23:34;102193.72;;;7.57;100.00
19748;BME280;10032;51.386;12.516;2023-02-14T09:26:03;102206.41;;;7.71;100.00
19748;BME280;10032;51.386;12.516;2023-02-14T09:28:29;102196.75;;;7.77;100.00
19748;BME280;10032;51.386;12.516;2023-02-14T09:30:55;102198.53;;;7.84;100.00
19748;BME280;10032;51.386;12.516;2023-02-14T09:33:20;102208.13;;;7.87;100.00
19748;BME280;10032;51.386;12.516;2023-02-14T09:35:46;102202.63;;;7.80;100.00
19748;BME280;10032;51.386;12.516;2023-02-14T09:38:30;102205.31;;;7.80;100.00
19748;BME280;10032;51.386;12.516;2023-02-14T09:40:56;102204.31;;;7.96;100.00
19748;BME280;10032;51.386;12.516;2023-02-14T09:43:29;102205.94;;;8.05;100.00
19748;BME280;10032;51.386;12.516;2023-02-14T09:46:01;102198.50;;;8.07;100.00
19748;BME280;10032;51.386;12.516;2023-02-14T09:48:29;102206.41;;;8.08;100.00
19748;BME280;10032;51.386;12.516;2023-02-14T09:51:01;102203.25;;;8.19;100.00
19748;BME280;10032;51.386;12.516;2023-02-14T09:53:32;102193.06;;;8.29;100.00
19748;BME280;10032;51.386;12.516;2023-02-14T09:56:04;102195.78;;;8.29;100.00
19748;BME280;10032;51.386;12.516;2023-02-14T09:58:37;102198.47;;;8.44;100.00
19748;BME280;10032;51.386;12.516;2023-02-14T10:09:05;102194.88;;;8.66;100.00
19748;BME280;10032;51.386;12.516;2023-02-14T10:11:34;102197.09;;;8.77;100.00
19748;BME280;10032;51.386;12.516;2023-02-14T10:14:13;102196.69;;;8.94;100.00
19748;BME280;10032;51.386;12.516;2023-02-14T10:16:54;102201.38;;;9.00;100.00
19748;BME280;10032;51.386;12.516;2023-02-14T10:22:00;102198.22;;;9.18;100.00
19748;BME280;10032;51.386;12.516;2023-02-14T10:24:41;102194.84;;;9.30;100.00
19748;BME280;10032;51.386;12.516;2023-02-14T10:27:29;102192.28;;;9.43;100.00
19748;BME280;10032;51.386;12.516;2023-02-14T10:29:56;102184.47;;;9.55;100.00
19748;BME280;10032;51.386;12.516;2023-02-14T10:32:34;102190.56;;;9.57;100.00
19748;BME280;10032;51.386;12.516;2023-02-14T10:35:10;102196.78;;;9.57;100.00
19748;BME280;10032;51.386;12.516;2023-02-14T10:38:03;102190.63;;;9.63;100.00
19748;BME280;10032;51.386;12.516;2023-02-14T10:48:29;102189.44;;;9.93;100.00
19748;BME280;10032;51.386;12.516;2023-02-14T10:56:49;102188.59;;;10.14;100.00
19748;BME280;10032;51.386;12.516;2023-02-14T10:59:21;102187.31;;;10.10;100.00
19748;BME280;10032;51.386;12.516;2023-02-14T11:01:50;102188.25;;;10.02;100.00
19748;BME280;10032;51.386;12.516;2023-02-14T11:04:18;102183.50;;;10.04;100.00
19748;BME280;10032;51.386;12.516;2023-02-14T11:06:45;102184.41;;;10.11;100.00
19748;BME280;10032;51.386;12.516;2023-02-14T11:09:14;102173.69;;;10.03;100.00
19748;BME280;10032;51.386;12.516;2023-02-14T11:11:47;102172.69;;;10.04;100.00
19748;BME280;10032;51.386;12.516;2023-02-14T11:14:20;102172.78;;;10.17;100.00
19748;BME280;10032;51.386;12.516;2023-02-14T11:16:46;102174.53;;;10.31;100.00
19748;BME280;10032;51.386;12.516;2023-02-14T11:19:26;102165.84;;;10.36;100.00
19748;BME280;10032;51.386;12.516;2023-02-14T11:21:54;102159.13;;;10.32;100.00
19748;BME280;10032;51.386;12.516;2023-02-14T11:24:34;102155.47;;;10.46;100.00
19748;BME280;10032;51.386;12.516;2023-02-14T11:29:44;102150.88;;;10.87;100.00
19748;BME280;10032;51.386;12.516;2023-02-14T11:32:25;102148.19;;;10.93;100.00
19748;BME280;10032;51.386;12.516;2023-02-14T11:37:31;102142.66;;;11.21;100.00
19748;BME280;10032;51.386;12.516;2023-02-14T11:39:59;102137.63;;;11.11;100.00
19748;BME280;10032;51.386;12.516;2023-02-14T11:42:41;102131.56;;;11.09;100.00
19748;BME280;10032;51.386;12.516;2023-02-14T11:48:27;102123.97;;;10.85;100.00
19748;BME280;10032;51.386;12.516;2023-02-14T11:50:56;102125.75;;;10.65;100.00
19748;BME280;10032;51.386;12.516;2023-02-14T11:54:05;102129.19;;;10.46;100.00
19748;BME280;10032;51.386;12.516;2023-02-14T11:56:51;102126.25;;;10.41;100.00
19748;BME280;10032;51.386;12.516;2023-02-14T12:00:12;102123.41;;;10.49;100.00
19748;BME280;10032;51.386;12.516;2023-02-14T12:04:57;102117.88;;;10.30;100.00
19748;BME280;10032;51.386;12.516;2023-02-14T12:07:32;102114.16;;;10.37;100.00
19748;BME280;10032;51.386;12.516;2023-02-14T12:12:58;102102.06;;;10.33;100.00
19748;BME280;10032;51.386;12.516;2023-02-14T12:18:10;102105.47;;;10.48;100.00
19748;BME280;10032;51.386;12.516;2023-02-14T12:23:17;102096.88;;;10.38;100.00
19748;BME280;10032;51.386;12.516;2023-02-14T12:25:49;102095.81;;;10.39;100.00
19748;BME280;10032;51.386;12.516;2023-02-14T12:28:21;102099.41;;;10.46;100.00
19748;BME280;10032;51.386;12.516;2023-02-14T12:30:50;102089.63;;;10.52;100.00
19748;BME280;10032;51.386;12.516;2023-02-14T12:33:20;102097.53;;;10.47;100.00
19748;BME280;10032;51.386;12.516;2023-02-14T12:44:24;102087.34;;;10.15;100.00
19748;BME280;10032;51.386;12.516;2023-02-14T12:47:13;102079.91;;;10.23;100.00
19748;BME280;10032;51.386;12.516;2023-02-14T12:58:24;102065.84;;;10.47;100.00
19748;BME280;10032;51.386;12.516;2023-02-14T13:03:51;102057.94;;;10.52;100.00
19748;BME280;10032;51.386;12.516;2023-02-14T13:06:34;102054.13;;;10.40;100.00
19748;BME280;10032;51.386;12.516;2023-02-14T13:09:32;102048.91;;;10.39;100.00
19748;BME280;10032;51.386;12.516;2023-02-14T13:17:58;102050.09;;;10.23;100.00
19748;BME280;10032;51.386;12.516;2023-02-14T13:20:52;102042.78;;;10.17;100.00
19748;BME280;10032;51.386;12.516;2023-02-14T13:26:19;102041.00;;;10.03;100.00
19748;BME280;10032;51.386;12.516;2023-02-14T13:28:50;102035.28;;;10.19;100.00
19748;BME280;10032;51.386;12.516;2023-02-14T13:31:18;102038.69;;;10.34;100.00
19748;BME280;10032;51.386;12.516;2023-02-14T13:33:55;102027.03;;;10.40;100.00
19748;BME280;10032;51.386;12.516;2023-02-14T13:36:21;102030.59;;;10.47;100.00
19748;BME280;10032;51.386;12.516;2023-02-14T13:38:53;102026.88;;;10.55;100.00
19748;BME280;10032;51.386;12.516;2023-02-14T13:41:21;102028.72;;;10.41;100.00
19748;BME280;10032;51.386;12.516;2023-02-14T13:43:56;102031.19;;;10.30;100.00
19748;BME280;10032;51.386;12.516;2023-02-14T13:49:13;102036.03;;;10.07;100.00
19748;BME280;10032;51.386;12.516;2023-02-14T13:51:46;102036.00;;;10.00;100.00
19748;BME280;10032;51.386;12.516;2023-02-14T13:56:54;102022.22;;;10.02;100.00
19748;BME280;10032;51.386;12.516;2023-02-14T13:59:32;102016.94;;;9.87;100.00
19748;BME280;10032;51.386;12.516;2023-02-14T14:04:48;102011.34;;;9.89;100.00
19748;BME280;10032;51.386;12.516;2023-02-14T14:07:20;102008.34;;;9.77;100.00
19748;BME280;10032;51.386;12.516;2023-02-14T14:15:13;102011.72;;;9.79;100.00
19748;BME280;10032;51.386;12.516;2023-02-14T14:25:38;102004.84;;;9.83;100.00
19748;BME280;10032;51.386;12.516;2023-02-14T14:28:19;102007.97;;;9.80;100.00
19748;BME280;10032;51.386;12.516;2023-02-14T14:30:46;102008.16;;;9.79;100.00
19748;BME280;10032;51.386;12.516;2023-02-14T14:33:22;102000.00;;;9.72;100.00
19748;BME280;10032;51.386;12.516;2023-02-14T14:35:59;102002.88;;;9.64;100.00
19748;BME280;10032;51.386;12.516;2023-02-14T14:38:27;102002.88;;;9.71;100.00
19748;BME280;10032;51.386;12.516;2023-02-14T14:40:53;101994.75;;;9.71;100.00
19748;BME280;10032;51.386;12.516;2023-02-14T14:43:29;101996.34;;;9.59;100.00
19748;BME280;10032;51.386;12.516;2023-02-14T14:45:57;101999.44;;;9.49;100.00
19748;BME280;10032;51.386;12.516;2023-02-14T14:51:07;101993.53;;;9.39;100.00
19748;BME280;10032;51.386;12.516;2023-02-14T14:53:45;101995.19;;;9.40;100.00
19748;BME280;10032;51.386;12.516;2023-02-14T14:56:24;101984.72;;;9.31;100.00
19748;BME280;10032;51.386;12.516;2023-02-14T14:58:50;101997.13;;;9.25;100.00
19748;BME280;10032;51.386;12.516;2023-02-14T15:01:35;101984.16;;;9.14;100.00
19748;BME280;10032;51.386;12.516;2023-02-14T15:04:18;101992.41;;;9.06;100.00
19748;BME280;10032;51.386;12.516;2023-02-14T15:06:45;101982.38;;;9.00;100.00
19748;BME280;10032;51.386;12.516;2023-02-14T15:09:18;101994.88;;;9.01;100.00